SBBE/BEL METAR and TAF weather

Enter ICAO airport designator
Station Type Date Time Source
SBBE METAR 2022/01/29 00:00 UTC NOAA

SBBE 290000Z 08008KT 9999 BKN035 BKN070 23/22 Q1011


Station Type Date Time Source
SBBE Decoded METAR 2022/01/29 00:00 UTC NOAA

Belem Aeroporto , Brazil (SBBE) 01-23S 048-29W 16M
Jan 28, 2022 - 07:00 PM EST / 2022.01.29 0000 UTC
Wind: from the E (080 degrees) at 9 MPH (8 KT):0
Visibility: greater than 7 mile(s):0
Sky conditions: mostly cloudy
Temperature: 73 F (23 C)
Dew Point: 71 F (22 C)
Relative Humidity: 94%
Pressure (altimeter): 29.85 in. Hg (1011 hPa)
ob: SBBE 290000Z 08008KT 9999 BKN035 BKN070 23/22 Q1011
cycle: 0

Station Type Date Time Source
SBBE TAF 2022/01/28 18:52 UTC NOAA

TAF SBBE 281535Z 2818/2918 02010KT 7000 BKN025 FEW030TCU TN23/2909Z TX28/2916Z
TEMPO 2818/2823 05015KT 5000 TSRA BKN015 FEW025CB
BECMG 2900/2902 08005KT 9999 SCT020
BECMG 2906/2908 12005KT 6000 RA SCT012 OVC030
BECMG 2912/2914 08010KT 8000 NSW BKN020
BECMG 2916/2917 02010KT BKN025 FEW040TCU
RMK PGB

Example: see airport list